sensor_id;sensor_type;location;lat;lon;timestamp;pressure;altitude;pressure_sealevel;temperature;humidity
77702;BME280;66868;42.708;23.404;2024-03-08T00:01:06;95228.59;;;6.51;92.99
77702;BME280;66868;42.708;23.404;2024-03-08T00:03:32;95224.06;;;6.59;92.01
77702;BME280;66868;42.708;23.404;2024-03-08T00:05:58;95215.94;;;6.73;91.78
77702;BME280;66868;42.708;23.404;2024-03-08T00:08:23;95233.78;;;6.87;91.54
77702;BME280;66868;42.708;23.404;2024-03-08T00:10:50;95207.81;;;6.87;91.00
77702;BME280;66868;42.708;23.404;2024-03-08T00:13:15;95204.69;;;7.00;91.03
77702;BME280;66868;42.708;23.404;2024-03-08T00:15:41;95227.41;;;7.18;91.36
77702;BME280;66868;42.708;23.404;2024-03-08T00:18:06;95214.59;;;6.85;91.19
77702;BME280;66868;42.708;23.404;2024-03-08T00:20:32;95232.31;;;7.02;91.18
77702;BME280;66868;42.708;23.404;2024-03-08T00:22:58;95224.63;;;7.05;91.08
77702;BME280;66868;42.708;23.404;2024-03-08T00:25:24;95210.31;;;6.66;91.41
77702;BME280;66868;42.708;23.404;2024-03-08T00:27:49;95223.78;;;6.86;91.50
77702;BME280;66868;42.708;23.404;2024-03-08T00:30:15;95227.09;;;6.86;91.08
77702;BME280;66868;42.708;23.404;2024-03-08T00:32:40;95208.44;;;6.72;90.88
77702;BME280;66868;42.708;23.404;2024-03-08T00:35:06;95221.53;;;6.80;91.46
77702;BME280;66868;42.708;23.404;2024-03-08T00:37:32;95218.41;;;6.54;91.72
77702;BME280;66868;42.708;23.404;2024-03-08T00:39:59;95220.41;;;6.46;92.14
77702;BME280;66868;42.708;23.404;2024-03-08T00:42:25;95213.44;;;6.33;93.49
77702;BME280;66868;42.708;23.404;2024-03-08T00:44:50;95200.28;;;6.26;93.74
77702;BME280;66868;42.708;23.404;2024-03-08T00:47:16;95193.69;;;6.24;94.09
77702;BME280;66868;42.708;23.404;2024-03-08T00:49:42;95205.16;;;6.29;94.45
77702;BME280;66868;42.708;23.404;2024-03-08T00:52:07;95207.56;;;6.12;94.88
77702;BME280;66868;42.708;23.404;2024-03-08T00:54:36;95202.66;;;6.09;95.03
77702;BME280;66868;42.708;23.404;2024-03-08T00:57:02;95181.28;;;5.99;95.23
77702;BME280;66868;42.708;23.404;2024-03-08T00:59:30;95197.63;;;6.09;95.36
77702;BME280;66868;42.708;23.404;2024-03-08T01:02:02;95172.59;;;6.06;95.30
77702;BME280;66868;42.708;23.404;2024-03-08T01:04:27;95191.69;;;6.32;94.80
77702;BME280;66868;42.708;23.404;2024-03-08T01:06:56;95190.72;;;6.54;94.85
77702;BME280;66868;42.708;23.404;2024-03-08T01:09:25;95186.53;;;6.55;94.12
77702;BME280;66868;42.708;23.404;2024-03-08T01:11:55;95184.06;;;6.53;94.35
77702;BME280;66868;42.708;23.404;2024-03-08T01:14:22;95178.66;;;6.62;94.17
77702;BME280;66868;42.708;23.404;2024-03-08T01:16:48;95142.56;;;6.43;94.20
77702;BME280;66868;42.708;23.404;2024-03-08T01:19:14;95179.75;;;6.76;93.83
77702;BME280;66868;42.708;23.404;2024-03-08T01:21:40;95174.47;;;6.82;93.41
77702;BME280;66868;42.708;23.404;2024-03-08T01:24:06;95181.81;;;6.86;92.27
77702;BME280;66868;42.708;23.404;2024-03-08T01:26:32;95174.06;;;6.91;91.64
77702;BME280;66868;42.708;23.404;2024-03-08T01:28:59;95175.56;;;6.95;91.26
77702;BME280;66868;42.708;23.404;2024-03-08T01:31:25;95097.53;;;6.57;90.80
77702;BME280;66868;42.708;23.404;2024-03-08T01:33:50;95117.63;;;6.78;90.54
77702;BME280;66868;42.708;23.404;2024-03-08T01:36:16;95167.34;;;7.10;90.82
77702;BME280;66868;42.708;23.404;2024-03-08T01:38:42;95165.66;;;7.10;90.42
77702;BME280;66868;42.708;23.404;2024-03-08T01:41:07;95143.34;;;7.03;90.64
77702;BME280;66868;42.708;23.404;2024-03-08T01:43:34;95090.31;;;6.70;89.90
77702;BME280;66868;42.708;23.404;2024-03-08T01:46:00;95155.13;;;7.02;89.74
77702;BME280;66868;42.708;23.404;2024-03-08T01:48:27;95164.78;;;6.93;89.48
77702;BME280;66868;42.708;23.404;2024-03-08T01:50:55;95164.47;;;6.99;89.68
77702;BME280;66868;42.708;23.404;2024-03-08T01:53:22;95152.72;;;6.81;88.96
77702;BME280;66868;42.708;23.404;2024-03-08T01:55:48;95163.13;;;6.92;89.17
77702;BME280;66868;42.708;23.404;2024-03-08T01:58:15;95126.66;;;6.82;88.18
77702;BME280;66868;42.708;23.404;2024-03-08T02:00:43;95154.00;;;6.89;87.78
77702;BME280;66868;42.708;23.404;2024-03-08T02:03:10;95147.06;;;6.76;87.35
77702;BME280;66868;42.708;23.404;2024-03-08T02:05:40;95137.31;;;6.49;88.77
77702;BME280;66868;42.708;23.404;2024-03-08T02:08:06;95123.63;;;6.36;88.73
77702;BME280;66868;42.708;23.404;2024-03-08T02:10:33;95103.72;;;5.91;89.02
77702;BME280;66868;42.708;23.404;2024-03-08T02:13:01;95139.59;;;6.15;89.33
77702;BME280;66868;42.708;23.404;2024-03-08T02:15:51;95161.00;;;6.03;90.65
77702;BME280;66868;42.708;23.404;2024-03-08T02:18:16;95161.94;;;6.01;91.18
77702;BME280;66868;42.708;23.404;2024-03-08T02:20:47;95161.56;;;5.90;91.68
77702;BME280;66868;42.708;23.404;2024-03-08T02:23:14;95151.06;;;5.78;91.04
77702;BME280;66868;42.708;23.404;2024-03-08T02:25:40;95147.88;;;5.53;91.46
77702;BME280;66868;42.708;23.404;2024-03-08T02:28:10;95156.28;;;5.52;92.27
77702;BME280;66868;42.708;23.404;2024-03-08T02:30:36;95163.97;;;5.69;92.72
77702;BME280;66868;42.708;23.404;2024-03-08T02:33:02;95150.69;;;5.67;92.67
77702;BME280;66868;42.708;23.404;2024-03-08T02:35:27;95165.41;;;5.76;93.09
77702;BME280;66868;42.708;23.404;2024-03-08T02:37:53;95140.34;;;5.53;94.03
77702;BME280;66868;42.708;23.404;2024-03-08T02:40:18;95170.69;;;5.69;93.90
77702;BME280;66868;42.708;23.404;2024-03-08T02:42:44;95166.69;;;5.65;93.62
77702;BME280;66868;42.708;23.404;2024-03-08T02:45:09;95166.69;;;5.65;93.22
77702;BME280;66868;42.708;23.404;2024-03-08T02:47:35;95166.81;;;5.62;93.42
77702;BME280;66868;42.708;23.404;2024-03-08T02:50:01;95169.72;;;5.73;91.66
77702;BME280;66868;42.708;23.404;2024-03-08T02:52:27;95163.88;;;5.51;91.35
77702;BME280;66868;42.708;23.404;2024-03-08T02:54:53;95177.06;;;5.56;91.12
77702;BME280;66868;42.708;23.404;2024-03-08T02:57:18;95173.47;;;5.63;90.99
77702;BME280;66868;42.708;23.404;2024-03-08T02:59:44;95109.53;;;5.06;90.94
77702;BME280;66868;42.708;23.404;2024-03-08T03:02:11;95173.09;;;5.28;91.67
77702;BME280;66868;42.708;23.404;2024-03-08T03:04:39;95159.41;;;5.14;91.98
77702;BME280;66868;42.708;23.404;2024-03-08T03:07:05;95142.09;;;4.84;92.40
77702;BME280;66868;42.708;23.404;2024-03-08T03:09:30;95155.50;;;4.83;92.54
77702;BME280;66868;42.708;23.404;2024-03-08T03:11:58;95176.97;;;4.90;92.00
77702;BME280;66868;42.708;23.404;2024-03-08T03:14:24;95177.91;;;4.88;92.69
77702;BME280;66868;42.708;23.404;2024-03-08T03:16:52;95178.88;;;4.85;93.15
77702;BME280;66868;42.708;23.404;2024-03-08T03:19:17;95162.25;;;4.81;92.53
77702;BME280;66868;42.708;23.404;2024-03-08T03:21:43;95184.63;;;4.87;92.79
77702;BME280;66868;42.708;23.404;2024-03-08T03:24:08;95177.22;;;4.84;91.83
77702;BME280;66868;42.708;23.404;2024-03-08T03:26:38;95175.84;;;4.76;92.15
77702;BME280;66868;42.708;23.404;2024-03-08T03:29:07;95168.88;;;4.84;91.98
77702;BME280;66868;42.708;23.404;2024-03-08T03:31:34;95163.03;;;4.83;90.93
77702;BME280;66868;42.708;23.404;2024-03-08T03:34:01;95166.75;;;4.97;91.33
77702;BME280;66868;42.708;23.404;2024-03-08T03:36:29;95188.84;;;5.32;90.28
77702;BME280;66868;42.708;23.404;2024-03-08T03:38:55;95193.91;;;5.54;90.01
77702;BME280;66868;42.708;23.404;2024-03-08T03:41:30;95178.50;;;5.63;90.40
77702;BME280;66868;42.708;23.404;2024-03-08T03:43:56;95198.38;;;5.91;90.13
77702;BME280;66868;42.708;23.404;2024-03-08T03:46:21;95203.03;;;6.00;88.93
77702;BME280;66868;42.708;23.404;2024-03-08T03:48:47;95126.69;;;5.60;89.16
77702;BME280;66868;42.708;23.404;2024-03-08T03:51:12;95210.75;;;6.15;89.69
77702;BME280;66868;42.708;23.404;2024-03-08T03:53:40;95213.84;;;6.22;89.61
77702;BME280;66868;42.708;23.404;2024-03-08T03:56:06;95191.66;;;6.11;88.28
77702;BME280;66868;42.708;23.404;2024-03-08T03:58:33;95191.56;;;6.14;86.92
77702;BME280;66868;42.708;23.404;2024-03-08T04:00:58;95216.88;;;6.30;87.12
77702;BME280;66868;42.708;23.404;2024-03-08T04:03:24;95223.53;;;6.31;85.88
77702;BME280;66868;42.708;23.404;2024-03-08T04:05:49;95219.38;;;6.30;86.58
77702;BME280;66868;42.708;23.404;2024-03-08T04:08:16;95213.84;;;6.22;86.58
77702;BME280;66868;42.708;23.404;2024-03-08T04:10:42;95225.72;;;6.39;86.13
77702;BME280;66868;42.708;23.404;2024-03-08T04:13:08;95203.66;;;6.25;85.86
77702;BME280;66868;42.708;23.404;2024-03-08T04:15:35;95226.00;;;6.33;86.32
77702;BME280;66868;42.708;23.404;2024-03-08T04:18:00;95230.50;;;6.25;85.89
77702;BME280;66868;42.708;23.404;2024-03-08T04:20:26;95205.34;;;6.04;85.80
77702;BME280;66868;42.708;23.404;2024-03-08T04:22:51;95235.34;;;6.29;86.30
77702;BME280;66868;42.708;23.404;2024-03-08T04:25:17;95216.97;;;6.07;85.42
77702;BME280;66868;42.708;23.404;2024-03-08T04:27:43;95240.88;;;6.17;85.43
77702;BME280;66868;42.708;23.404;2024-03-08T04:30:10;95243.97;;;6.24;84.80
77702;BME280;66868;42.708;23.404;2024-03-08T04:32:35;95232.31;;;6.21;84.83
77702;BME280;66868;42.708;23.404;2024-03-08T04:35:01;95241.91;;;6.11;86.21
77702;BME280;66868;42.708;23.404;2024-03-08T04:37:27;95248.47;;;5.94;86.73
77702;BME280;66868;42.708;23.404;2024-03-08T04:39:55;95251.13;;;5.91;87.56
77702;BME280;66868;42.708;23.404;2024-03-08T04:42:20;95231.59;;;5.52;88.07
77702;BME280;66868;42.708;23.404;2024-03-08T04:44:46;95251.66;;;5.54;88.27
77702;BME280;66868;42.708;23.404;2024-03-08T04:47:12;95260.66;;;5.59;88.73
77702;BME280;66868;42.708;23.404;2024-03-08T04:49:38;95247.28;;;5.59;88.57
77702;BME280;66868;42.708;23.404;2024-03-08T04:52:04;95257.38;;;5.79;87.70
77702;BME280;66868;42.708;23.404;2024-03-08T04:54:32;95258.66;;;5.91;88.18
77702;BME280;66868;42.708;23.404;2024-03-08T04:56:58;95263.78;;;5.88;87.78
77702;BME280;66868;42.708;23.404;2024-03-08T04:59:26;95254.56;;;5.65;89.45
77702;BME280;66868;42.708;23.404;2024-03-08T05:01:52;95264.91;;;5.79;88.52
77702;BME280;66868;42.708;23.404;2024-03-08T05:04:17;95258.53;;;5.94;88.62
77702;BME280;66868;42.708;23.404;2024-03-08T05:06:44;95272.03;;;6.13;89.40
77702;BME280;66868;42.708;23.404;2024-03-08T05:09:09;95264.47;;;6.13;88.49
77702;BME280;66868;42.708;23.404;2024-03-08T05:11:44;95262.47;;;6.21;89.42
77702;BME280;66868;42.708;23.404;2024-03-08T05:14:11;95268.56;;;6.37;89.17
77702;BME280;66868;42.708;23.404;2024-03-08T05:16:37;95252.88;;;6.31;88.45
77702;BME280;66868;42.708;23.404;2024-03-08T05:19:03;95279.75;;;6.50;85.65
77702;BME280;66868;42.708;23.404;2024-03-08T05:21:28;95281.50;;;6.48;86.06
77702;BME280;66868;42.708;23.404;2024-03-08T05:23:54;95268.56;;;6.37;85.66
77702;BME280;66868;42.708;23.404;2024-03-08T05:26:20;95273.41;;;6.42;84.74
77702;BME280;66868;42.708;23.404;2024-03-08T05:28:47;95289.13;;;6.47;85.28
77702;BME280;66868;42.708;23.404;2024-03-08T05:31:23;95252.44;;;6.21;86.46
77702;BME280;66868;42.708;23.404;2024-03-08T05:33:48;95315.50;;;6.57;86.06
77702;BME280;66868;42.708;23.404;2024-03-08T05:36:14;95313.09;;;6.55;86.66
77702;BME280;66868;42.708;23.404;2024-03-08T05:38:42;95295.94;;;6.43;87.05
77702;BME280;66868;42.708;23.404;2024-03-08T05:41:09;95313.44;;;6.46;87.17
77702;BME280;66868;42.708;23.404;2024-03-08T05:43:34;95324.88;;;6.53;87.70
77702;BME280;66868;42.708;23.404;2024-03-08T05:46:00;95308.97;;;6.53;86.84
77702;BME280;66868;42.708;23.404;2024-03-08T05:48:25;95326.81;;;6.69;83.89
77702;BME280;66868;42.708;23.404;2024-03-08T05:50:51;95336.72;;;6.72;83.20
77702;BME280;66868;42.708;23.404;2024-03-08T05:53:17;95336.72;;;6.72;83.41
77702;BME280;66868;42.708;23.404;2024-03-08T05:55:42;95308.97;;;6.53;82.40
77702;BME280;66868;42.708;23.404;2024-03-08T05:58:08;95333.34;;;6.73;81.43
77702;BME280;66868;42.708;23.404;2024-03-08T06:00:34;95326.13;;;6.65;81.07
77702;BME280;66868;42.708;23.404;2024-03-08T06:03:01;95345.69;;;6.79;81.96
77702;BME280;66868;42.708;23.404;2024-03-08T06:05:28;95321.94;;;6.64;81.50
77702;BME280;66868;42.708;23.404;2024-03-08T06:07:53;95357.94;;;6.86;81.37
77702;BME280;66868;42.708;23.404;2024-03-08T06:10:19;95329.19;;;6.72;81.38
77702;BME280;66868;42.708;23.404;2024-03-08T06:12:44;95337.50;;;6.74;80.95
77702;BME280;66868;42.708;23.404;2024-03-08T06:15:10;95337.56;;;6.72;80.89
77702;BME280;66868;42.708;23.404;2024-03-08T06:17:40;95357.13;;;6.86;80.87
77702;BME280;66868;42.708;23.404;2024-03-08T06:20:06;95364.19;;;6.98;81.27
77702;BME280;66868;42.708;23.404;2024-03-08T06:22:37;95363.06;;;7.05;80.45
77702;BME280;66868;42.708;23.404;2024-03-08T06:25:06;95327.56;;;6.91;80.68
77702;BME280;66868;42.708;23.404;2024-03-08T06:27:32;95366.41;;;7.05;80.72
77702;BME280;66868;42.708;23.404;2024-03-08T06:30:02;95347.13;;;7.04;80.88
77702;BME280;66868;42.708;23.404;2024-03-08T06:32:30;95371.81;;;7.17;80.63
77702;BME280;66868;42.708;23.404;2024-03-08T06:34:56;95374.00;;;7.24;79.75
77702;BME280;66868;42.708;23.404;2024-03-08T06:37:21;95361.63;;;7.20;80.14
77702;BME280;66868;42.708;23.404;2024-03-08T06:39:48;95343.50;;;7.12;79.63
77702;BME280;66868;42.708;23.404;2024-03-08T06:42:13;95374.38;;;7.35;79.42
77702;BME280;66868;42.708;23.404;2024-03-08T06:44:39;95371.78;;;7.37;78.85
77702;BME280;66868;42.708;23.404;2024-03-08T06:47:14;95375.81;;;7.41;78.37
77702;BME280;66868;42.708;23.404;2024-03-08T06:49:40;95368.34;;;7.39;78.58
77702;BME280;66868;42.708;23.404;2024-03-08T06:52:06;95285.56;;;6.93;78.41
77702;BME280;66868;42.708;23.404;2024-03-08T06:54:34;95382.94;;;7.51;78.58
77702;BME280;66868;42.708;23.404;2024-03-08T06:57:02;95376.81;;;7.57;78.37
77702;BME280;66868;42.708;23.404;2024-03-08T06:59:28;95382.53;;;7.61;78.00
77702;BME280;66868;42.708;23.404;2024-03-08T07:01:54;95375.66;;;7.64;78.01
77702;BME280;66868;42.708;23.404;2024-03-08T07:04:20;95350.19;;;7.51;78.13
77702;BME280;66868;42.708;23.404;2024-03-08T07:06:47;95373.81;;;7.68;76.94
77702;BME280;66868;42.708;23.404;2024-03-08T07:09:15;95384.22;;;7.80;77.15
77702;BME280;66868;42.708;23.404;2024-03-08T07:11:44;95389.16;;;7.82;77.77
77702;BME280;66868;42.708;23.404;2024-03-08T07:14:09;95367.66;;;7.75;77.46
77702;BME280;66868;42.708;23.404;2024-03-08T07:16:35;95383.91;;;7.86;77.22
77702;BME280;66868;42.708;23.404;2024-03-08T07:19:01;95390.19;;;7.96;77.33
77702;BME280;66868;42.708;23.404;2024-03-08T07:21:27;95366.41;;;7.83;77.40
77702;BME280;66868;42.708;23.404;2024-03-08T07:23:52;95375.16;;;7.95;77.34
77702;BME280;66868;42.708;23.404;2024-03-08T07:26:27;95379.78;;;8.04;78.23
77702;BME280;66868;42.708;23.404;2024-03-08T07:28:53;95396.47;;;8.07;79.02
77702;BME280;66868;42.708;23.404;2024-03-08T07:31:22;95393.91;;;8.08;78.72
77702;BME280;66868;42.708;23.404;2024-03-08T07:33:50;95336.44;;;7.77;78.26
77702;BME280;66868;42.708;23.404;2024-03-08T07:36:16;95401.41;;;7.71;78.95
77702;BME280;66868;42.708;23.404;2024-03-08T07:38:41;95402.91;;;7.75;79.50
77702;BME280;66868;42.708;23.404;2024-03-08T07:41:07;95397.84;;;7.95;77.72
77702;BME280;66868;42.708;23.404;2024-03-08T07:43:32;95373.81;;;7.68;77.50
77702;BME280;66868;42.708;23.404;2024-03-08T07:45:58;95397.84;;;7.95;77.41
77702;BME280;66868;42.708;23.404;2024-03-08T07:48:23;95403.97;;;7.89;77.34
77702;BME280;66868;42.708;23.404;2024-03-08T07:50:49;95399.28;;;7.62;77.21
77702;BME280;66868;42.708;23.404;2024-03-08T07:53:15;95394.00;;;7.27;77.84
77702;BME280;66868;42.708;23.404;2024-03-08T07:55:40;95400.31;;;7.37;78.46
77702;BME280;66868;42.708;23.404;2024-03-08T07:58:07;95402.81;;;6.97;79.42
77702;BME280;66868;42.708;23.404;2024-03-08T08:00:36;95374.72;;;6.65;80.62
77702;BME280;66868;42.708;23.404;2024-03-08T08:03:02;95394.91;;;7.06;79.79
77702;BME280;66868;42.708;23.404;2024-03-08T08:05:28;95378.66;;;6.93;78.60
77702;BME280;66868;42.708;23.404;2024-03-08T08:07:53;95405.69;;;6.88;79.81
77702;BME280;66868;42.708;23.404;2024-03-08T08:10:19;95393.75;;;6.93;78.56
77702;BME280;66868;42.708;23.404;2024-03-08T08:12:50;95373.72;;;6.90;78.66
77702;BME280;66868;42.708;23.404;2024-03-08T08:15:19;95374.63;;;6.89;79.05
77702;BME280;66868;42.708;23.404;2024-03-08T08:17:46;95378.75;;;6.90;79.12
77702;BME280;66868;42.708;23.404;2024-03-08T08:20:13;95317.84;;;6.61;78.85
77702;BME280;66868;42.708;23.404;2024-03-08T08:22:39;95376.88;;;6.95;78.48
77702;BME280;66868;42.708;23.404;2024-03-08T08:25:13;95378.75;;;6.90;78.37
77702;BME280;66868;42.708;23.404;2024-03-08T08:27:39;95387.69;;;6.77;79.92
77702;BME280;66868;42.708;23.404;2024-03-08T08:30:13;95387.03;;;6.72;79.38
77702;BME280;66868;42.708;23.404;2024-03-08T08:32:39;95397.66;;;7.00;80.54
77702;BME280;66868;42.708;23.404;2024-03-08T08:35:05;95364.94;;;7.00;80.87
77702;BME280;66868;42.708;23.404;2024-03-08T08:37:31;95367.91;;;7.09;81.57
77702;BME280;66868;42.708;23.404;2024-03-08T08:39:58;95385.38;;;7.13;79.40
77702;BME280;66868;42.708;23.404;2024-03-08T08:42:24;95398.50;;;7.21;77.38
77702;BME280;66868;42.708;23.404;2024-03-08T08:44:49;95393.97;;;7.29;77.51
77702;BME280;66868;42.708;23.404;2024-03-08T08:47:16;95379.19;;;7.21;78.84
77702;BME280;66868;42.708;23.404;2024-03-08T08:49:45;95377.25;;;7.26;78.32
77702;BME280;66868;42.708;23.404;2024-03-08T08:52:13;95379.91;;;7.43;76.69
77702;BME280;66868;42.708;23.404;2024-03-08T08:54:38;95361.09;;;7.32;76.32
77702;BME280;66868;42.708;23.404;2024-03-08T08:57:04;95393.16;;;7.48;75.95
77702;BME280;66868;42.708;23.404;2024-03-08T08:59:33;95373.00;;;7.28;76.73
77702;BME280;66868;42.708;23.404;2024-03-08T09:02:01;95345.94;;;7.13;76.93
77702;BME280;66868;42.708;23.404;2024-03-08T09:04:29;95374.63;;;7.29;76.03
77702;BME280;66868;42.708;23.404;2024-03-08T09:06:54;95383.69;;;7.33;75.63
77702;BME280;66868;42.708;23.404;2024-03-08T09:09:20;95377.31;;;7.45;75.53
77702;BME280;66868;42.708;23.404;2024-03-08T09:11:47;95374.09;;;7.62;74.86
77702;BME280;66868;42.708;23.404;2024-03-08T09:14:12;95376.47;;;7.65;74.12
77702;BME280;66868;42.708;23.404;2024-03-08T09:16:39;95356.81;;;7.73;73.91
77702;BME280;66868;42.708;23.404;2024-03-08T09:19:05;95373.16;;;7.83;72.58
77702;BME280;66868;42.708;23.404;2024-03-08T09:21:32;95340.13;;;7.70;73.46
77702;BME280;66868;42.708;23.404;2024-03-08T09:23:58;95371.25;;;8.07;72.67
77702;BME280;66868;42.708;23.404;2024-03-08T09:26:23;95354.22;;;8.12;71.44
77702;BME280;66868;42.708;23.404;2024-03-08T09:28:49;95353.28;;;8.33;72.34
77702;BME280;66868;42.708;23.404;2024-03-08T09:31:15;95375.69;;;8.58;71.84
77702;BME280;66868;42.708;23.404;2024-03-08T09:33:42;95344.41;;;8.24;71.13
77702;BME280;66868;42.708;23.404;2024-03-08T09:36:08;95383.72;;;8.28;72.16
77702;BME280;66868;42.708;23.404;2024-03-08T09:38:33;95344.97;;;8.12;72.17
77702;BME280;66868;42.708;23.404;2024-03-08T09:41:02;95353.25;;;8.52;71.93
77702;BME280;66868;42.708;23.404;2024-03-08T09:43:29;95346.09;;;8.78;71.88
77702;BME280;66868;42.708;23.404;2024-03-08T09:45:57;95367.28;;;9.10;71.21
77702;BME280;66868;42.708;23.404;2024-03-08T09:48:23;95356.56;;;9.22;71.07
77702;BME280;66868;42.708;23.404;2024-03-08T09:50:48;95376.22;;;9.50;69.23
77702;BME280;66868;42.708;23.404;2024-03-08T09:53:14;95374.84;;;9.27;68.38
77702;BME280;66868;42.708;23.404;2024-03-08T09:55:40;95353.59;;;9.14;70.08
77702;BME280;66868;42.708;23.404;2024-03-08T09:58:08;95374.44;;;9.52;71.27
77702;BME280;66868;42.708;23.404;2024-03-08T10:00:43;95377.66;;;9.71;70.75
77702;BME280;66868;42.708;23.404;2024-03-08T10:03:08;95386.88;;;9.22;69.72
77702;BME280;66868;42.708;23.404;2024-03-08T10:05:34;95368.16;;;8.92;69.60
77702;BME280;66868;42.708;23.404;2024-03-08T10:08:00;95373.78;;;8.97;71.63
77702;BME280;66868;42.708;23.404;2024-03-08T10:10:25;95372.69;;;9.20;70.15
77702;BME280;66868;42.708;23.404;2024-03-08T10:12:51;95369.31;;;9.02;69.49
77702;BME280;66868;42.708;23.404;2024-03-08T10:15:17;95368.88;;;8.77;68.88
77702;BME280;66868;42.708;23.404;2024-03-08T10:17:43;95368.81;;;8.78;70.22
77702;BME280;66868;42.708;23.404;2024-03-08T10:20:15;95359.22;;;8.68;71.39
77702;BME280;66868;42.708;23.404;2024-03-08T10:22:42;95371.19;;;8.81;70.46
77702;BME280;66868;42.708;23.404;2024-03-08T10:25:13;95366.66;;;8.88;69.69
77702;BME280;66868;42.708;23.404;2024-03-08T10:27:39;95363.56;;;8.83;68.45
77702;BME280;66868;42.708;23.404;2024-03-08T10:30:14;95373.16;;;9.11;69.63
77702;BME280;66868;42.708;23.404;2024-03-08T10:32:40;95317.44;;;9.14;70.45
77702;BME280;66868;42.708;23.404;2024-03-08T10:35:09;95367.31;;;9.76;68.51
77702;BME280;66868;42.708;23.404;2024-03-08T10:37:46;95370.38;;;9.98;67.34
77702;BME280;66868;42.708;23.404;2024-03-08T10:40:20;95317.75;;;9.89;66.73
77702;BME280;66868;42.708;23.404;2024-03-08T10:42:59;95361.56;;;10.05;67.92
77702;BME280;66868;42.708;23.404;2024-03-08T10:45:38;95331.78;;;10.10;64.86
77702;BME280;66868;42.708;23.404;2024-03-08T10:50:49;95359.66;;;10.87;63.27
77702;BME280;66868;42.708;23.404;2024-03-08T10:53:17;95358.63;;;10.60;61.52
77702;BME280;66868;42.708;23.404;2024-03-08T10:55:44;95341.44;;;10.19;61.52
77702;BME280;66868;42.708;23.404;2024-03-08T10:58:10;95355.28;;;9.97;63.01
77702;BME280;66868;42.708;23.404;2024-03-08T11:00:36;95309.03;;;9.79;63.63
77702;BME280;66868;42.708;23.404;2024-03-08T11:03:03;95325.34;;;9.89;63.69
77702;BME280;66868;42.708;23.404;2024-03-08T11:05:32;95347.28;;;10.04;63.82
77702;BME280;66868;42.708;23.404;2024-03-08T11:08:02;95346.78;;;9.82;63.74
77702;BME280;66868;42.708;23.404;2024-03-08T11:10:28;95318.72;;;9.71;64.56
77702;BME280;66868;42.708;23.404;2024-03-08T11:12:54;95312.16;;;9.51;65.31
77702;BME280;66868;42.708;23.404;2024-03-08T11:15:19;95340.31;;;9.76;64.58
77702;BME280;66868;42.708;23.404;2024-03-08T11:17:47;95205.78;;;8.92;65.51
77702;BME280;66868;42.708;23.404;2024-03-08T11:20:20;95331.09;;;9.60;65.10
77702;BME280;66868;42.708;23.404;2024-03-08T11:23:00;95268.31;;;9.52;67.43
77702;BME280;66868;42.708;23.404;2024-03-08T11:25:37;95277.78;;;9.80;64.57
77702;BME280;66868;42.708;23.404;2024-03-08T11:30:47;95328.47;;;10.26;64.63
77702;BME280;66868;42.708;23.404;2024-03-08T11:33:16;95323.56;;;10.54;64.96
77702;BME280;66868;42.708;23.404;2024-03-08T11:35:42;95316.41;;;10.76;62.93
77702;BME280;66868;42.708;23.404;2024-03-08T11:38:11;95326.22;;;11.11;63.49
77702;BME280;66868;42.708;23.404;2024-03-08T11:40:39;95295.13;;;11.23;63.28
77702;BME280;66868;42.708;23.404;2024-03-08T11:43:05;95271.53;;;11.36;60.73
77702;BME280;66868;42.708;23.404;2024-03-08T11:45:34;95296.06;;;11.64;60.60
77702;BME280;66868;42.708;23.404;2024-03-08T11:48:02;95320.94;;;11.72;58.83
77702;BME280;66868;42.708;23.404;2024-03-08T11:50:29;95317.34;;;11.76;59.11
77702;BME280;66868;42.708;23.404;2024-03-08T11:53:00;95305.66;;;11.45;59.41
77702;BME280;66868;42.708;23.404;2024-03-08T11:55:27;95309.16;;;11.71;60.19
77702;BME280;66868;42.708;23.404;2024-03-08T11:58:02;95297.50;;;11.97;61.31
77702;BME280;66868;42.708;23.404;2024-03-08T12:00:28;95321.31;;;12.35;60.29
77702;BME280;66868;42.708;23.404;2024-03-08T12:03:04;95316.97;;;12.37;57.02
77702;BME280;66868;42.708;23.404;2024-03-08T12:05:31;95324.09;;;12.45;57.81
77702;BME280;66868;42.708;23.404;2024-03-08T12:07:58;95300.66;;;12.27;55.04
77702;BME280;66868;42.708;23.404;2024-03-08T12:10:24;95313.41;;;12.66;57.91
77702;BME280;66868;42.708;23.404;2024-03-08T12:12:52;95320.25;;;12.78;57.47
77702;BME280;66868;42.708;23.404;2024-03-08T12:15:19;95318.72;;;12.76;54.94
77702;BME280;66868;42.708;23.404;2024-03-08T12:17:50;95300.00;;;12.64;56.66
77702;BME280;66868;42.708;23.404;2024-03-08T12:20:17;95327.28;;;12.88;57.52
77702;BME280;66868;42.708;23.404;2024-03-08T12:22:44;95292.75;;;12.85;53.38
77702;BME280;66868;42.708;23.404;2024-03-08T12:25:12;95321.41;;;13.00;56.50
77702;BME280;66868;42.708;23.404;2024-03-08T12:27:43;95313.84;;;13.38;55.52
77702;BME280;66868;42.708;23.404;2024-03-08T12:30:25;95313.31;;;13.70;52.91
77702;BME280;66868;42.708;23.404;2024-03-08T12:32:58;95327.63;;;13.97;49.94
77702;BME280;66868;42.708;23.404;2024-03-08T12:35:26;95292.94;;;13.83;49.07
77702;BME280;66868;42.708;23.404;2024-03-08T12:37:53;95314.22;;;14.31;50.81
77702;BME280;66868;42.708;23.404;2024-03-08T12:40:28;95306.38;;;14.82;49.23
77702;BME280;66868;42.708;23.404;2024-03-08T12:42:57;95306.09;;;15.09;48.09
77702;BME280;66868;42.708;23.404;2024-03-08T12:45:24;95294.88;;;15.11;44.20
77702;BME280;66868;42.708;23.404;2024-03-08T12:47:55;95300.97;;;15.43;44.42
77702;BME280;66868;42.708;23.404;2024-03-08T12:50:21;95290.31;;;16.59;41.32
77702;BME280;66868;42.708;23.404;2024-03-08T12:52:48;95312.91;;;18.19;40.83
77702;BME280;66868;42.708;23.404;2024-03-08T12:55:18;95312.47;;;19.40;36.89
77702;BME280;66868;42.708;23.404;2024-03-08T12:57:44;95323.13;;;20.56;32.92
77702;BME280;66868;42.708;23.404;2024-03-08T13:00:10;95307.19;;;21.75;30.92
77702;BME280;66868;42.708;23.404;2024-03-08T13:02:45;95302.66;;;23.11;29.94